ePrivacy and GPDR Cookie Consent by Cookie Consent
EmailTwitter


Observations de surface / France / LFMP (07747)

Régions: Québec | Canada | États-Unis | Europe | France | UK | Ailleurs
Station
Affichage
Infos & localisation pour LFMP (07747) | Aide pour décoder les METARs

Observations prises le 2023-02-09 à 06H00 UTC à PERPIGNAN/RIVESA, FR (LFMP)

Etat du ciel: partiellement nuageux.

Température: 2.0 Celsius

Point de rosée: 0.0 Celsius

Humidité relative: 87%

Vents: Sud-ouest à 6 km/h ou 3 noeuds.

Pression au niveau moyen de la mer: 103.20 kilopascals.

Visibilité horizontale: 6.21 milles terrestres ou 9.94 kilomètres.

Hauteur du plafond: 2560 mètres ( 8400 pieds ).

Observation METAR:

LFMP 090600Z AUTO 23003KT 9999 FEW054 SCT064 BKN084 02/00 Q1032 TEMPO 3000 SHRA

BKN025 FEW025TCU=